Time;durP1;ratioP1;P1;durP2;ratioP2;P2;SDS_P1;SDS_P2;PMS_P1;PMS_P2;Temp;Humidity;BMP_temperature;BMP_pressure;BME280_temperature;BME280_humidity;BME280_pressure;Samples;Min_cycle;Max_cycle;Signal;HPM_P1;HPM_P2
2022/08/26 00:01:14;;;;;;;13.82;6.05;;;22.70;99.90;;;;;;5048546;28;20029;-50
2022/08/26 00:03:40;;;;;;;9.95;4.50;;;22.80;99.90;;;;;;5044476;28;20028;-52
2022/08/26 00:06:06;;;;;;;13.98;5.38;;;22.70;99.90;;;;;;5046219;28;20048;-51
2022/08/26 00:08:32;;;;;;;14.52;6.00;;;22.80;99.90;;;;;;5049883;28;20028;-51
2022/08/26 00:10:58;;;;;;;16.33;5.47;;;22.70;99.90;;;;;;5042048;28;20037;-50
2022/08/26 00:13:23;;;;;;;12.35;5.32;;;22.70;99.90;;;;;;5041393;28;20025;-50
2022/08/26 00:15:50;;;;;;;11.30;6.00;;;22.70;99.90;;;;;;5042746;28;20080;-50
2022/08/26 00:18:16;;;;;;;10.77;5.53;;;22.70;99.90;;;;;;5043412;28;20028;-51
2022/08/26 00:20:42;;;;;;;14.60;8.32;;;22.70;99.90;;;;;;5045206;28;20028;-52
2022/08/26 00:23:08;;;;;;;14.73;9.05;;;22.70;99.90;;;;;;5049172;28;20033;-51
2022/08/26 00:25:34;;;;;;;11.93;7.55;;;22.70;99.90;;;;;;5044714;28;20372;-50
2022/08/26 00:28:00;;;;;;;13.32;9.00;;;22.60;99.90;;;;;;5041722;28;20029;-54
2022/08/26 00:30:28;;;;;;;15.98;9.77;;;22.60;99.90;;;;;;5042381;28;20365;-50
2022/08/26 00:32:55;;;;;;;17.80;10.88;;;22.60;99.90;;;;;;5052190;22;20053;-55
2022/08/26 00:35:21;;;;;;;19.15;10.93;;;22.50;99.90;;;;;;5030336;28;20040;-56
2022/08/26 00:37:47;;;;;;;17.38;11.18;;;22.50;99.90;;;;;;5029752;28;20071;-56
2022/08/26 00:40:16;;;;;;;20.70;12.45;;;22.50;99.90;;;;;;5025968;28;20642;-54
2022/08/26 00:42:43;;;;;;;24.38;12.75;;;22.50;99.90;;;;;;5029378;28;20105;-55
2022/08/26 00:45:09;;;;;;;31.15;16.95;;;22.50;99.90;;;;;;5032091;28;20041;-57
2022/08/26 00:47:47;;;;;;;26.73;17.23;;;22.40;99.90;;;;;;5031890;28;20040;-55
2022/08/26 00:50:17;;;;;;;45.17;23.52;;;22.40;99.90;;;;;;5030179;28;20095;-58
2022/08/26 00:52:44;;;;;;;41.63;27.15;;;22.40;99.90;;;;;;5030259;28;20022;-55
2022/08/26 00:55:39;;;;;;;38.42;26.75;;;22.40;99.90;;;;;;5026860;28;20669;-55
2022/08/26 00:58:07;;;;;;;49.70;32.00;;;22.40;99.90;;;;;;5020059;28;20049;-57
2022/08/26 01:00:33;;;;;;;47.38;32.65;;;22.40;99.90;;;;;;5025405;28;20026;-56
2022/08/26 01:03:00;;;;;;;42.45;28.70;;;22.30;99.90;;;;;;5027319;28;20399;-57
2022/08/26 01:05:27;;;;;;;48.15;32.08;;;22.30;99.90;;;;;;5023727;28;20056;-62
2022/08/26 01:07:53;;;;;;;58.00;37.00;;;22.30;99.90;;;;;;5032228;28;20122;-62
2022/08/26 01:10:22;;;;;;;60.53;40.03;;;22.30;99.90;;;;;;5029187;28;20049;-59
2022/08/26 01:12:53;;;;;;;70.25;43.58;;;22.30;99.90;;;;;;5028729;28;20030;-60
2022/08/26 01:15:23;;;;;;;69.50;42.45;;;22.20;99.90;;;;;;5035042;28;20024;-57
2022/08/26 01:17:49;;;;;;;67.78;44.22;;;22.20;99.90;;;;;;5039059;28;20040;-58
2022/08/26 01:20:48;;;;;;;65.13;43.05;;;22.30;99.90;;;;;;5029689;28;20021;-60
2022/08/26 01:23:14;;;;;;;71.53;47.60;;;22.20;99.90;;;;;;5026355;28;20037;-60
2022/08/26 01:25:47;;;;;;;76.60;43.15;;;22.20;99.90;;;;;;5027511;28;20033;-57
2022/08/26 01:28:17;;;;;;;80.65;49.10;;;22.10;99.90;;;;;;5029044;28;20415;-58
2022/08/26 01:30:45;;;;;;;76.57;48.83;;;22.10;99.90;;;;;;5028640;28;20079;-57
2022/08/26 01:33:16;;;;;;;76.30;44.83;;;22.00;99.90;;;;;;5026295;28;20380;-59
2022/08/26 01:35:42;;;;;;;89.05;52.83;;;22.00;99.90;;;;;;5027005;28;20128;-60
2022/08/26 01:38:08;;;;;;;75.93;50.72;;;22.00;99.90;;;;;;5026545;28;20029;-60
2022/08/26 01:40:36;;;;;;;80.30;50.08;;;21.90;99.90;;;;;;5026446;28;20029;-61
2022/08/26 01:43:06;;;;;;;67.00;44.15;;;22.00;99.90;;;;;;5024795;28;20080;-60
2022/08/26 01:45:34;;;;;;;84.60;52.05;;;21.90;99.90;;;;;;5027869;28;20035;-60
2022/08/26 01:48:03;;;;;;;84.93;53.42;;;21.90;99.90;;;;;;5033364;28;20180;-62
2022/08/26 01:50:32;;;;;;;80.80;50.17;;;21.80;99.90;;;;;;5029218;28;20112;-61
2022/08/26 01:53:00;;;;;;;78.75;51.00;;;21.80;99.90;;;;;;5026377;28;20025;-62
2022/08/26 01:55:27;;;;;;;85.88;53.45;;;21.70;99.90;;;;;;5027368;28;20045;-62
2022/08/26 01:57:55;;;;;;;84.38;51.72;;;21.70;99.90;;;;;;5037214;28;20044;-62
2022/08/26 02:00:23;;;;;;;79.30;50.10;;;21.70;99.90;;;;;;5030273;28;20022;-63
2022/08/26 02:03:15;;;;;;;77.97;50.35;;;21.60;99.90;;;;;;5016138;28;20129;-63
2022/08/26 02:05:39;;;;;;;72.82;45.40;;;21.50;99.90;;;;;;5023524;28;20042;-61
2022/08/26 02:08:06;;;;;;;77.88;48.17;;;21.60;99.90;;;;;;5032325;28;20033;-63
2022/08/26 02:10:32;;;;;;;90.78;54.05;;;21.60;99.90;;;;;;5030400;28;20071;-62
2022/08/26 02:12:57;;;;;;;90.05;53.47;;;21.50;99.90;;;;;;5027999;28;20030;-59
2022/08/26 02:15:23;;;;;;;78.78;52.15;;;21.50;99.90;;;;;;5029850;28;20025;-62
2022/08/26 02:17:50;;;;;;;80.32;49.42;;;21.40;99.90;;;;;;5033808;28;20033;-62
2022/08/26 02:20:17;;;;;;;81.53;51.28;;;21.50;99.90;;;;;;5029952;28;20026;-63
2022/08/26 02:22:43;;;;;;;80.43;51.55;;;21.40;99.90;;;;;;5026320;28;20025;-63
2022/08/26 02:25:38;;;;;;;72.35;45.47;;;21.40;99.90;;;;;;5027555;28;20037;-58
2022/08/26 02:28:03;;;;;;;81.03;48.37;;;21.40;99.90;;;;;;5033700;28;20036;-62
2022/08/26 02:30:31;;;;;;;77.95;49.78;;;21.40;99.90;;;;;;5029909;28;20276;-58
2022/08/26 02:33:03;;;;;;;74.72;47.15;;;21.40;99.90;;;;;;5027335;28;20033;-62
2022/08/26 02:35:31;;;;;;;75.32;46.97;;;21.30;99.90;;;;;;5027484;28;20036;-60
2022/08/26 02:37:56;;;;;;;73.28;46.40;;;21.30;99.90;;;;;;5039492;28;20061;-61
2022/08/26 02:40:27;;;;;;;76.22;48.03;;;21.30;99.90;;;;;;5027650;28;20060;-61
2022/08/26 02:42:53;;;;;;;70.75;43.97;;;21.20;99.90;;;;;;5028077;28;20053;-61
2022/08/26 02:45:18;;;;;;;65.45;42.38;;;21.20;99.90;;;;;;5024835;28;20060;-62
2022/08/26 02:47:44;;;;;;;75.70;47.15;;;21.20;99.90;;;;;;5032813;28;20064;-61
2022/08/26 02:50:10;;;;;;;78.22;48.53;;;21.20;99.90;;;;;;5027411;28;20030;-57
2022/08/26 02:52:35;;;;;;;68.18;43.45;;;21.00;99.90;;;;;;5024530;28;20431;-62
2022/08/26 02:55:02;;;;;;;74.90;45.35;;;21.00;99.90;;;;;;5026105;28;20034;-61
2022/08/26 02:57:27;;;;;;;77.28;45.30;;;21.00;99.90;;;;;;5036194;28;20033;-63
2022/08/26 02:59:53;;;;;;;72.70;43.53;;;21.00;99.90;;;;;;5030294;28;20629;-59
2022/08/26 03:02:20;;;;;;;83.13;45.42;;;21.00;99.90;;;;;;5030953;28;20376;-58
2022/08/26 03:04:45;;;;;;;66.53;43.67;;;20.90;99.90;;;;;;5026202;28;20052;-55
2022/08/26 03:07:11;;;;;;;76.72;44.75;;;20.90;99.90;;;;;;5031628;28;20109;-61
2022/08/26 03:09:36;;;;;;;72.47;44.10;;;20.80;99.90;;;;;;5031281;28;20032;-63
2022/08/26 03:12:02;;;;;;;68.50;44.10;;;20.90;99.90;;;;;;5020828;28;20502;-62
2022/08/26 03:14:28;;;;;;;70.93;44.97;;;20.90;99.90;;;;;;5027746;28;20044;-58
2022/08/26 03:16:54;;;;;;;79.20;47.15;;;20.90;99.90;;;;;;5024999;28;20026;-57
2022/08/26 03:19:22;;;;;;;75.03;45.80;;;20.90;99.90;;;;;;5031003;28;20033;-61
2022/08/26 03:21:47;;;;;;;85.72;47.28;;;21.00;99.90;;;;;;5037796;28;20065;-63
2022/08/26 03:24:13;;;;;;;85.43;44.72;;;21.00;99.90;;;;;;5027258;28;20130;-62
2022/08/26 03:26:39;;;;;;;69.80;40.28;;;21.00;99.90;;;;;;5034422;28;20040;-62
2022/08/26 03:31:49;;;;;;;64.60;41.63;;;21.10;99.90;;;;;;5027056;28;20063;-62
2022/08/26 03:34:16;;;;;;;78.38;45.60;;;21.10;99.90;;;;;;5027741;28;20057;-62
2022/08/26 03:36:42;;;;;;;74.85;43.80;;;21.20;99.90;;;;;;5030093;28;20017;-62
2022/08/26 03:39:08;;;;;;;75.05;44.97;;;21.10;99.90;;;;;;5027016;28;20522;-62
2022/08/26 03:41:34;;;;;;;76.90;45.22;;;21.10;99.90;;;;;;5025638;28;20022;-61
2022/08/26 03:44:01;;;;;;;69.88;43.00;;;21.10;99.90;;;;;;5026556;28;20037;-61
2022/08/26 03:46:27;;;;;;;72.15;42.35;;;21.10;99.90;;;;;;5028559;28;20083;-59
2022/08/26 03:48:52;;;;;;;81.13;45.47;;;21.10;99.90;;;;;;5029198;28;20037;-59
2022/08/26 03:51:18;;;;;;;70.60;42.08;;;21.10;99.90;;;;;;5027376;28;20033;-62
2022/08/26 03:53:45;;;;;;;76.30;44.67;;;21.10;99.90;;;;;;5023946;28;20037;-59
2022/08/26 03:56:11;;;;;;;67.57;42.17;;;21.10;99.90;;;;;;5031486;28;20037;-59
2022/08/26 03:58:37;;;;;;;73.60;43.70;;;21.10;99.90;;;;;;5031089;28;20022;-58
2022/08/26 04:01:03;;;;;;;74.75;43.03;;;21.10;99.90;;;;;;5034584;28;20037;-62
2022/08/26 04:06:13;;;;;;;71.25;43.72;;;21.10;99.90;;;;;;5029785;28;20056;-62
2022/08/26 04:08:39;;;;;;;67.95;41.30;;;21.10;99.90;;;;;;5032270;28;20479;-62
2022/08/26 04:11:05;;;;;;;75.30;41.90;;;21.10;99.90;;;;;;5029338;28;20018;-61
2022/08/26 04:13:31;;;;;;;75.00;40.47;;;21.10;99.90;;;;;;5026309;28;20056;-62
2022/08/26 04:15:56;;;;;;;75.82;39.55;;;21.10;99.90;;;;;;5030212;28;20148;-59
2022/08/26 04:18:22;;;;;;;70.75;41.25;;;21.20;99.90;;;;;;5028078;28;20030;-60
2022/08/26 04:20:48;;;;;;;76.80;42.45;;;21.20;99.90;;;;;;5032457;28;20044;-60
2022/08/26 04:23:15;;;;;;;84.68;42.63;;;21.20;99.90;;;;;;5029944;28;20032;-57
2022/08/26 04:25:41;;;;;;;74.32;40.83;;;21.20;99.90;;;;;;5029965;28;20052;-62
2022/08/26 04:28:07;;;;;;;74.35;40.05;;;21.20;99.90;;;;;;5033253;28;20032;-61
2022/08/26 04:30:36;;;;;;;68.57;38.70;;;21.20;99.90;;;;;;5031067;28;20021;-61
2022/08/26 04:33:03;;;;;;;68.55;37.88;;;21.10;99.90;;;;;;5030651;28;20036;-61
2022/08/26 04:35:29;;;;;;;68.60;40.10;;;21.20;99.90;;;;;;5031270;28;20026;-62
2022/08/26 04:37:55;;;;;;;62.47;38.80;;;21.20;99.90;;;;;;5033418;28;20038;-62
2022/08/26 04:40:20;;;;;;;64.35;37.03;;;21.20;99.90;;;;;;5030763;28;20056;-60
2022/08/26 04:42:46;;;;;;;62.95;35.97;;;21.20;99.90;;;;;;5028540;28;20033;-61
2022/08/26 04:45:12;;;;;;;63.45;37.10;;;21.20;99.90;;;;;;5030419;28;20030;-62
2022/08/26 04:47:38;;;;;;;63.47;37.58;;;21.20;99.90;;;;;;5028832;28;20029;-61
2022/08/26 04:50:05;;;;;;;67.97;35.22;;;21.10;99.90;;;;;;5030732;28;20033;-62
2022/08/26 04:52:31;;;;;;;70.05;37.45;;;21.10;99.90;;;;;;5022782;28;20021;-62
2022/08/26 04:54:56;;;;;;;62.67;35.80;;;21.10;99.90;;;;;;5031041;28;20029;-60
2022/08/26 04:57:22;;;;;;;57.03;31.42;;;21.20;99.90;;;;;;5029176;28;20029;-61
2022/08/26 04:59:48;;;;;;;64.45;34.40;;;21.20;99.90;;;;;;5031070;28;20431;-62
2022/08/26 05:02:13;;;;;;;62.47;32.78;;;21.20;99.90;;;;;;5026772;28;20026;-61
2022/08/26 05:04:42;;;;;;;54.10;32.25;;;21.20;99.90;;;;;;5027977;28;20031;-61
2022/08/26 05:07:08;;;;;;;51.47;32.40;;;21.10;99.90;;;;;;5027892;28;20045;-59
2022/08/26 05:09:34;;;;;;;58.28;31.75;;;21.10;99.90;;;;;;5029720;28;20593;-60
2022/08/26 05:11:59;;;;;;;48.50;27.77;;;21.20;99.90;;;;;;5029722;28;20032;-58
2022/08/26 05:14:25;;;;;;;58.17;31.15;;;21.20;99.90;;;;;;5030771;28;20025;-61
2022/08/26 05:16:51;;;;;;;52.95;30.73;;;21.20;99.90;;;;;;5031064;28;20033;-62
2022/08/26 05:19:16;;;;;;;49.05;28.42;;;21.20;99.90;;;;;;5029366;28;20404;-62
2022/08/26 05:21:43;;;;;;;49.28;28.45;;;21.20;99.90;;;;;;5031618;28;20061;-59
2022/08/26 05:24:11;;;;;;;53.03;28.27;;;21.20;99.90;;;;;;5028436;28;20037;-59
2022/08/26 05:26:36;;;;;;;45.38;27.13;;;21.20;99.90;;;;;;5027992;28;20483;-59
2022/08/26 05:29:02;;;;;;;46.22;27.45;;;21.30;99.90;;;;;;5030487;28;20037;-59
2022/08/26 05:31:30;;;;;;;50.35;27.63;;;21.30;99.90;;;;;;5027485;28;20076;-58
2022/08/26 05:33:57;;;;;;;57.50;27.15;;;21.30;99.90;;;;;;5030937;28;20418;-60
2022/08/26 05:36:25;;;;;;;44.22;24.95;;;21.20;99.90;;;;;;5030136;28;20021;-60
2022/08/26 05:38:50;;;;;;;43.55;25.33;;;21.20;99.90;;;;;;5029361;28;20032;-58
2022/08/26 05:41:31;;;;;;;43.00;23.98;;;21.30;99.90;;;;;;5029400;28;20033;-59
2022/08/26 05:43:58;;;;;;;46.22;27.17;;;21.30;99.90;;;;;;5030651;28;20029;-60
2022/08/26 05:46:25;;;;;;;42.00;23.52;;;21.30;99.90;;;;;;5029559;28;20025;-58
2022/08/26 05:48:52;;;;;;;47.35;27.10;;;21.30;99.90;;;;;;5028612;28;20037;-59
2022/08/26 05:51:18;;;;;;;42.97;23.45;;;21.20;99.90;;;;;;5025190;28;20009;-59
2022/08/26 05:53:43;;;;;;;39.47;24.10;;;21.30;99.90;;;;;;5028369;28;20041;-60
2022/08/26 05:56:10;;;;;;;34.78;22.13;;;21.30;99.90;;;;;;5031213;28;20037;-59
2022/08/26 05:58:38;;;;;;;40.65;20.88;;;21.30;99.90;;;;;;5030228;28;20153;-58
2022/08/26 06:01:18;;;;;;;49.97;23.33;;;21.30;99.90;;;;;;5032795;28;20029;-58
2022/08/26 06:03:46;;;;;;;39.13;20.73;;;21.40;99.90;;;;;;5030366;28;20025;-56
2022/08/26 06:06:16;;;;;;;34.55;20.10;;;21.40;99.90;;;;;;5031529;28;20038;-57
2022/08/26 06:08:42;;;;;;;32.63;19.80;;;21.40;99.90;;;;;;5027390;28;20438;-58
2022/08/26 06:11:12;;;;;;;33.22;22.40;;;21.40;99.90;;;;;;5025790;28;20445;-58
2022/08/26 06:13:39;;;;;;;32.53;19.75;;;21.40;99.90;;;;;;5026731;28;20041;-59
2022/08/26 06:16:07;;;;;;;28.17;18.65;;;21.40;99.90;;;;;;5026498;28;20023;-56
2022/08/26 06:18:36;;;;;;;27.85;17.88;;;21.40;99.90;;;;;;5024471;28;20025;-55
2022/08/26 06:21:24;;;;;;;38.53;19.90;;;21.40;99.90;;;;;;5031112;28;20029;-59
2022/08/26 06:26:37;;;;;;;31.55;18.40;;;21.40;99.90;;;;;;5029941;28;20064;-58
2022/08/26 06:29:05;;;;;;;32.85;19.02;;;21.40;99.90;;;;;;5036226;28;20032;-58
2022/08/26 06:31:34;;;;;;;29.33;19.05;;;21.40;99.90;;;;;;5030670;28;20021;-61
2022/08/26 06:34:01;;;;;;;32.15;15.32;;;21.40;99.90;;;;;;5052527;23;20238;-49
2022/08/26 06:36:29;;;;;;;27.05;16.10;;;21.50;99.90;;;;;;5046174;28;20025;-51
2022/08/26 06:38:59;;;;;;;36.40;16.90;;;21.50;99.90;;;;;;5050126;28;20053;-51
2022/08/26 06:41:26;;;;;;;25.50;16.45;;;21.50;99.90;;;;;;5050391;28;20021;-51
2022/08/26 06:43:51;;;;;;;32.05;17.02;;;21.50;99.90;;;;;;5054852;28;20037;-51
2022/08/26 06:46:20;;;;;;;22.98;15.43;;;21.50;99.90;;;;;;5060578;28;20029;-51
2022/08/26 06:48:46;;;;;;;25.33;14.55;;;21.50;99.90;;;;;;5054486;28;20111;-51
2022/08/26 06:51:14;;;;;;;30.20;15.55;;;21.50;99.90;;;;;;5047499;28;20032;-50
2022/08/26 06:53:41;;;;;;;52.50;28.00;;;21.60;99.90;;;;;;5060015;28;20060;-52
2022/08/26 06:56:09;;;;;;;24.70;14.27;;;21.60;99.90;;;;;;5059404;28;20104;-50
2022/08/26 06:58:36;;;;;;;29.45;13.82;;;21.70;99.90;;;;;;5054840;28;20020;-51
2022/08/26 07:01:03;;;;;;;25.25;14.25;;;21.70;99.90;;;;;;5057279;28;20028;-50
2022/08/26 07:03:28;;;;;;;23.55;14.05;;;21.70;99.90;;;;;;5049095;28;20486;-51
2022/08/26 07:06:00;;;;;;;22.88;13.80;;;21.70;99.90;;;;;;5059160;28;20033;-51
2022/08/26 07:08:26;;;;;;;23.08;12.45;;;21.70;99.90;;;;;;5053789;28;20017;-52
2022/08/26 07:10:52;;;;;;;27.27;13.20;;;21.70;99.90;;;;;;5047965;28;20078;-50
2022/08/26 07:13:17;;;;;;;20.85;11.95;;;21.70;99.90;;;;;;5057118;28;20029;-50
2022/08/26 07:15:43;;;;;;;21.27;11.60;;;21.70;99.90;;;;;;5049349;28;20021;-53
2022/08/26 07:18:08;;;;;;;27.77;13.25;;;21.80;99.90;;;;;;5050543;28;20438;-50
2022/08/26 07:20:39;;;;;;;28.08;14.32;;;21.90;99.90;;;;;;5054428;28;20444;-50
2022/08/26 07:23:08;;;;;;;29.52;14.63;;;21.80;99.90;;;;;;5053143;28;20052;-50
2022/08/26 07:25:38;;;;;;;38.50;13.23;;;21.80;99.90;;;;;;5050784;28;20112;-50
2022/08/26 07:28:04;;;;;;;34.58;17.63;;;21.80;99.90;;;;;;5048846;28;20037;-53
2022/08/26 07:30:29;;;;;;;35.38;14.60;;;21.80;99.90;;;;;;5045049;28;20021;-50
2022/08/26 07:32:57;;;;;;;20.85;13.35;;;21.90;99.90;;;;;;5041942;28;20441;-51
2022/08/26 07:35:22;;;;;;;25.50;13.40;;;21.80;99.90;;;;;;5044557;28;20502;-50
2022/08/26 07:37:48;;;;;;;36.17;14.65;;;21.80;99.90;;;;;;5051330;28;20033;-50
2022/08/26 07:40:13;;;;;;;18.13;13.15;;;21.80;99.90;;;;;;5052417;28;20100;-51
2022/08/26 07:42:39;;;;;;;21.98;12.82;;;21.80;99.90;;;;;;5042920;28;20103;-50
2022/08/26 07:45:05;;;;;;;28.63;13.95;;;21.90;99.90;;;;;;5043944;28;20280;-52
2022/08/26 07:47:31;;;;;;;26.75;13.38;;;21.90;99.90;;;;;;5038933;28;20036;-50
2022/08/26 07:49:57;;;;;;;28.92;13.73;;;21.90;99.90;;;;;;5035207;28;20427;-50
2022/08/26 07:52:25;;;;;;;26.45;14.38;;;21.90;99.90;;;;;;5039227;28;20033;-51
2022/08/26 07:54:50;;;;;;;32.75;15.30;;;21.90;99.90;;;;;;5045008;28;20040;-51
2022/08/26 07:57:16;;;;;;;29.40;15.05;;;21.90;99.90;;;;;;5044238;28;20475;-50
2022/08/26 07:59:41;;;;;;;27.27;15.18;;;21.80;99.90;;;;;;5035365;28;20044;-53
2022/08/26 08:02:07;;;;;;;26.35;14.55;;;21.80;99.90;;;;;;5032588;28;20021;-51
2022/08/26 08:04:33;;;;;;;22.60;13.73;;;21.80;99.90;;;;;;5038968;28;20029;-50
2022/08/26 08:06:58;;;;;;;24.77;14.10;;;21.80;99.90;;;;;;5038029;28;20029;-51
2022/08/26 08:09:24;;;;;;;22.10;12.45;;;21.80;99.90;;;;;;5041164;28;20033;-50
2022/08/26 08:11:50;;;;;;;32.80;17.90;;;21.90;99.90;;;;;;5038095;28;20471;-53
2022/08/26 08:14:17;;;;;;;32.55;18.92;;;21.80;99.90;;;;;;5042214;28;20013;-50
2022/08/26 08:16:42;;;;;;;34.00;18.80;;;21.80;99.90;;;;;;5034038;28;20029;-51
2022/08/26 08:19:08;;;;;;;33.95;18.95;;;21.80;99.90;;;;;;5035014;28;20491;-51
2022/08/26 08:21:33;;;;;;;31.80;18.35;;;21.80;99.90;;;;;;5037618;28;20029;-50
2022/08/26 08:23:59;;;;;;;34.88;18.05;;;21.80;99.90;;;;;;5036948;28;20029;-52
2022/08/26 08:26:26;;;;;;;33.83;18.85;;;21.80;99.90;;;;;;5043549;28;20131;-51
2022/08/26 08:28:55;;;;;;;44.75;25.83;;;21.80;99.90;;;;;;5043584;28;20032;-50
2022/08/26 08:31:28;;;;;;;44.47;26.38;;;21.80;99.90;;;;;;5046544;28;20032;-50
2022/08/26 08:33:54;;;;;;;38.88;24.70;;;21.80;99.90;;;;;;5041923;28;20483;-50
2022/08/26 08:36:20;;;;;;;50.55;28.73;;;21.90;99.90;;;;;;5047902;28;20082;-51
2022/08/26 08:38:46;;;;;;;48.15;25.67;;;21.90;99.90;;;;;;5036042;28;20085;-53
2022/08/26 08:41:50;;;;;;;32.00;19.48;;;21.90;99.90;;;;;;5045149;28;20037;-50
2022/08/26 08:44:19;;;;;;;31.88;18.58;;;21.80;99.90;;;;;;5025668;28;20037;-50
2022/08/26 08:46:53;;;;;;;36.22;20.52;;;21.90;99.90;;;;;;5049108;28;20033;-51
2022/08/26 08:49:18;;;;;;;38.00;18.10;;;21.90;99.90;;;;;;5039447;28;20029;-50
2022/08/26 08:51:57;;;;;;;30.02;17.23;;;22.00;99.90;;;;;;5045413;28;20037;-52
2022/08/26 08:54:25;;;;;;;28.98;15.70;;;22.00;99.90;;;;;;5046192;28;20311;-51
2022/08/26 08:56:58;;;;;;;35.47;18.02;;;22.00;99.90;;;;;;5043670;28;20018;-50
2022/08/26 08:59:30;;;;;;;23.15;15.85;;;22.00;99.90;;;;;;5038661;28;20438;-50
2022/08/26 09:02:04;;;;;;;28.60;16.73;;;21.90;99.90;;;;;;5038478;28;20033;-50
2022/08/26 09:05:01;;;;;;;23.85;14.35;;;21.80;99.90;;;;;;5045838;28;20021;-49
2022/08/26 09:08:01;;;;;;;30.92;17.08;;;21.90;99.90;;;;;;5036286;28;20031;-49
2022/08/26 09:10:37;;;;;;;33.42;18.15;;;21.90;99.90;;;;;;5040422;28;20410;-49
2022/08/26 09:13:16;;;;;;;28.10;16.65;;;21.80;99.90;;;;;;5042692;28;20036;-51
2022/08/26 09:15:44;;;;;;;21.77;13.32;;;21.80;99.90;;;;;;5037952;28;20475;-50
2022/08/26 09:18:27;;;;;;;20.80;13.93;;;21.80;99.90;;;;;;5036947;28;20032;-49
2022/08/26 09:21:04;;;;;;;20.60;13.38;;;21.80;99.90;;;;;;5041065;28;21782;-50
2022/08/26 09:23:34;;;;;;;30.80;16.58;;;21.80;99.90;;;;;;5047655;28;20033;-50
2022/08/26 09:26:11;;;;;;;27.08;14.80;;;21.80;99.90;;;;;;5050367;28;20518;-49
2022/08/26 09:28:41;;;;;;;18.15;11.90;;;21.70;99.90;;;;;;5045543;28;20482;-50
2022/08/26 09:31:15;;;;;;;21.77;11.93;;;21.80;99.90;;;;;;5042628;28;20067;-49
2022/08/26 09:33:41;;;;;;;19.80;12.00;;;21.80;99.90;;;;;;5043447;28;20028;-52
2022/08/26 09:36:21;;;;;;;23.25;13.43;;;21.90;99.90;;;;;;5049122;28;20041;-50
2022/08/26 09:38:48;;;;;;;37.15;21.92;;;22.00;99.90;;;;;;5033684;28;20124;-49
2022/08/26 09:41:24;;;;;;;28.95;14.25;;;22.10;99.90;;;;;;5036317;28;20025;-49
2022/08/26 09:44:10;;;;;;;21.13;11.88;;;22.20;99.90;;;;;;5040962;28;20025;-50
2022/08/26 09:46:39;;;;;;;18.55;11.50;;;22.30;99.90;;;;;;5037684;28;20399;-50
2022/08/26 09:49:31;;;;;;;14.27;10.93;;;22.30;99.90;;;;;;5039807;28;20506;-49
2022/08/26 09:52:26;;;;;;;24.98;12.48;;;22.30;99.90;;;;;;5035785;28;20029;-50
2022/08/26 09:55:09;;;;;;;;;;;22.30;99.90;;;;;;5037606;28;20052;-49
2022/08/26 09:57:44;;;;;;;22.65;10.07;;;22.20;99.90;;;;;;5040538;28;20386;-50
2022/08/26 10:00:30;;;;;;;19.58;9.40;;;22.20;99.90;;;;;;5033392;28;20095;-50
2022/08/26 10:02:58;;;;;;;19.98;9.85;;;22.10;99.90;;;;;;5037581;28;20081;-50
2022/08/26 10:05:44;;;;;;;17.63;8.95;;;22.10;99.90;;;;;;5033869;28;20123;-49
2022/08/26 10:08:21;;;;;;;18.45;8.95;;;22.20;99.90;;;;;;5041290;28;20434;-52
2022/08/26 10:10:48;;;;;;;18.75;9.25;;;22.20;99.90;;;;;;5035176;28;20413;-50
2022/08/26 10:13:33;;;;;;;15.75;8.27;;;22.10;99.90;;;;;;5041369;28;20124;-52
2022/08/26 10:16:20;;;;;;;13.65;8.25;;;22.20;99.90;;;;;;5037586;28;20075;-51
2022/08/26 10:18:57;;;;;;;21.38;8.13;;;22.10;99.90;;;;;;5032005;28;20479;-50
2022/08/26 10:21:29;;;;;;;13.95;7.43;;;22.10;99.90;;;;;;5041018;28;20028;-51
2022/08/26 10:23:58;;;;;;;14.50;8.43;;;22.10;99.90;;;;;;5041236;28;20029;-50
2022/08/26 10:26:47;;;;;;;15.80;7.30;;;22.10;99.90;;;;;;5036262;28;20029;-50
2022/08/26 10:29:18;;;;;;;11.90;8.40;;;22.10;99.90;;;;;;5039395;28;20037;-50
2022/08/26 10:31:49;;;;;;;16.52;8.32;;;22.20;99.90;;;;;;5043675;28;20028;-50
2022/08/26 10:34:16;;;;;;;23.38;8.45;;;22.20;99.90;;;;;;5031577;28;20033;-50
2022/08/26 10:36:55;;;;;;;21.77;8.23;;;22.20;99.90;;;;;;5033098;28;20074;-50
2022/08/26 10:39:39;;;;;;;12.82;7.82;;;22.20;99.90;;;;;;5038280;28;20025;-50
2022/08/26 10:42:18;;;;;;;15.15;7.13;;;22.20;99.90;;;;;;5037812;28;20029;-51
2022/08/26 10:44:46;;;;;;;13.82;6.90;;;22.30;99.90;;;;;;5042624;28;20418;-49
2022/08/26 10:47:18;;;;;;;13.27;6.18;;;22.30;99.90;;;;;;5036323;28;20121;-50
2022/08/26 10:49:46;;;;;;;16.50;7.10;;;22.40;99.90;;;;;;5035522;28;20025;-49
2022/08/26 10:52:30;;;;;;;12.70;6.18;;;22.40;99.90;;;;;;5038180;28;20029;-49
2022/08/26 10:55:24;;;;;;;16.53;8.00;;;22.40;99.90;;;;;;5037108;28;20036;-50
2022/08/26 10:57:58;;;;;;;20.63;9.30;;;22.50;99.90;;;;;;5037998;28;20036;-49
2022/08/26 11:03:42;;;;;;;;;;;22.60;99.90;;;;;;5040432;28;20095;-49
2022/08/26 11:06:21;;;;;;;14.80;5.95;;;22.80;99.90;;;;;;5033875;28;19905;-49
2022/08/26 11:08:55;;;;;;;11.55;6.13;;;22.80;99.90;;;;;;5038497;28;20368;-50
2022/08/26 11:11:41;;;;;;;8.63;5.28;;;22.80;99.90;;;;;;5037134;28;20018;-50
2022/08/26 11:14:18;;;;;;;10.93;4.78;;;23.00;99.90;;;;;;5044591;28;20575;-50
2022/08/26 11:16:45;;;;;;;7.85;4.40;;;23.10;99.90;;;;;;5033658;28;20022;-50
2022/08/26 11:19:38;;;;;;;12.25;4.20;;;23.10;99.90;;;;;;5037715;28;20029;-51
2022/08/26 11:22:25;;;;;;;7.40;4.10;;;23.10;99.90;;;;;;5040602;28;20121;-50
2022/08/26 11:24:53;;;;;;;9.45;3.63;;;23.20;99.90;;;;;;5039544;28;20096;-51
2022/08/26 11:27:23;;;;;;;6.63;3.85;;;23.30;99.90;;;;;;5043306;28;20143;-50
2022/08/26 11:30:05;;;;;;;7.32;3.70;;;23.30;99.90;;;;;;5039762;28;20025;-50
2022/08/26 11:32:33;;;;;;;7.10;3.45;;;23.30;99.90;;;;;;5049046;28;20498;-51
2022/08/26 11:35:10;;;;;;;12.25;3.70;;;23.40;99.90;;;;;;5033882;28;20731;-51
2022/08/26 11:37:38;;;;;;;7.78;4.20;;;23.40;99.90;;;;;;5037927;28;20037;-52
2022/08/26 11:40:12;;;;;;;7.55;3.88;;;23.30;99.90;;;;;;5038264;28;20029;-50
2022/08/26 11:42:39;;;;;;;8.52;3.85;;;23.30;99.90;;;;;;5048351;28;20025;-52
2022/08/26 11:45:36;;;;;;;10.52;4.10;;;23.40;99.90;;;;;;5043984;28;20487;-50
2022/08/26 11:48:17;;;;;;;15.07;3.95;;;23.50;99.90;;;;;;5037905;28;20453;-52
2022/08/26 11:50:57;;;;;;;11.48;3.83;;;23.40;99.90;;;;;;5044409;28;20074;-50
2022/08/26 11:53:24;;;;;;;10.55;4.22;;;23.50;99.90;;;;;;5041829;28;20509;-51
2022/08/26 11:55:52;;;;;;;9.80;3.63;;;23.60;99.90;;;;;;5038456;28;20025;-50
2022/08/26 11:58:24;;;;;;;7.72;3.80;;;23.70;99.90;;;;;;5037682;28;20025;-50
2022/08/26 12:01:06;;;;;;;13.75;3.45;;;23.80;99.90;;;;;;5043361;28;20040;-50
2022/08/26 12:03:40;;;;;;;9.30;3.72;;;23.90;99.90;;;;;;5035911;28;20451;-50
2022/08/26 12:06:37;;;;;;;8.55;3.40;;;23.80;99.90;;;;;;5044024;28;20032;-50
2022/08/26 12:09:09;;;;;;;14.80;3.28;;;24.00;99.90;;;;;;5015739;28;20097;-51
2022/08/26 12:11:37;;;;;;;8.65;2.67;;;24.00;99.90;;;;;;5047125;28;20360;-50
2022/08/26 12:14:15;;;;;;;7.53;2.97;;;24.00;99.90;;;;;;5044387;28;20052;-50
2022/08/26 12:16:41;;;;;;;6.03;2.67;;;23.90;99.90;;;;;;5040726;28;20082;-50
2022/08/26 12:19:27;;;;;;;9.98;3.15;;;23.90;99.90;;;;;;5035876;28;20407;-50
2022/08/26 12:22:04;;;;;;;7.03;2.97;;;23.90;99.90;;;;;;5032691;28;20086;-50
2022/08/26 12:24:30;;;;;;;8.55;2.90;;;23.80;99.90;;;;;;5042910;28;20024;-51
2022/08/26 12:27:14;;;;;;;10.50;2.90;;;23.70;99.90;;;;;;5027911;28;20383;-50
2022/08/26 12:29:40;;;;;;;14.38;3.20;;;23.70;99.90;;;;;;5046572;28;20095;-51
2022/08/26 12:32:17;;;;;;;14.02;2.88;;;23.80;99.90;;;;;;5041352;28;20025;-50
2022/08/26 12:34:45;;;;;;;11.35;3.08;;;23.80;99.90;;;;;;5041956;28;20029;-51
2022/08/26 12:39:49;;;;;;;11.90;3.33;;;23.80;99.90;;;;;;5012481;28;20057;-60
2022/08/26 12:42:17;;;;;;;7.95;2.97;;;23.90;99.90;;;;;;5013648;28;20522;-57
2022/08/26 12:44:43;;;;;;;9.95;3.13;;;23.90;99.90;;;;;;5018186;28;20097;-62
2022/08/26 12:47:31;;;;;;;9.75;2.63;;;23.90;99.90;;;;;;5015617;28;20108;-62
2022/08/26 12:50:19;;;;;;;10.07;3.03;;;23.90;99.90;;;;;;4994128;28;20116;-63
2022/08/26 12:53:03;;;;;;;7.07;2.78;;;23.80;99.90;;;;;;4987494;28;20038;-61
2022/08/26 12:55:31;;;;;;;9.95;3.20;;;23.80;99.90;;;;;;4991459;28;20019;-59
2022/08/26 12:58:15;;;;;;;11.10;3.50;;;23.90;99.90;;;;;;5000474;28;20041;-60
2022/08/26 13:00:42;;;;;;;9.47;2.90;;;23.90;99.90;;;;;;4994334;28;20097;-61